createdAt,value
2023-04-07T00:01:12.614Z,19.60
2023-04-07T00:03:41.073Z,19.47
2023-04-07T00:06:10.470Z,19.33
2023-04-07T00:08:38.213Z,19.16
2023-04-07T00:11:06.195Z,19.26
2023-04-07T00:13:34.037Z,19.43
2023-04-07T00:16:01.794Z,19.44
2023-04-07T00:18:29.665Z,19.52
2023-04-07T00:20:57.504Z,19.58
2023-04-07T00:23:27.113Z,19.51
2023-04-07T00:25:54.916Z,19.38
2023-04-07T00:28:22.628Z,19.21
2023-04-07T00:30:50.417Z,18.99
2023-04-07T00:33:18.180Z,18.94
2023-04-07T00:35:46.438Z,18.95
2023-04-07T00:38:14.243Z,19.02
2023-04-07T00:40:43.376Z,19.05
2023-04-07T00:43:11.222Z,18.90
2023-04-07T00:45:39.002Z,18.83
2023-04-07T00:48:07.379Z,18.87
2023-04-07T00:50:35.179Z,18.91
2023-04-07T00:53:03.295Z,18.97
2023-04-07T00:55:31.218Z,18.92
2023-04-07T00:58:00.487Z,18.83
2023-04-07T01:00:28.995Z,18.78
2023-04-07T01:03:01.220Z,18.72
2023-04-07T01:05:38.152Z,18.76
2023-04-07T01:08:14.402Z,18.67
2023-04-07T01:10:49.553Z,18.56
2023-04-07T01:13:25.426Z,18.53
2023-04-07T01:15:57.247Z,18.47
2023-04-07T01:18:30.412Z,18.59
2023-04-07T01:21:04.716Z,18.39
2023-04-07T01:23:42.793Z,18.34
2023-04-07T01:26:20.859Z,18.38
2023-04-07T01:29:23.705Z,18.58
2023-04-07T01:31:55.874Z,18.48
2023-04-07T01:34:27.037Z,18.50
2023-04-07T01:36:56.611Z,18.29
2023-04-07T01:39:25.347Z,18.40
2023-04-07T01:41:54.608Z,18.19
2023-04-07T01:44:23.531Z,18.16
2023-04-07T01:46:52.780Z,18.24
2023-04-07T01:49:20.738Z,18.04
2023-04-07T01:51:50.565Z,18.07
2023-04-07T01:54:19.470Z,17.97
2023-04-07T01:56:47.478Z,17.87
2023-04-07T01:59:15.530Z,17.98
2023-04-07T02:01:43.506Z,18.02
2023-04-07T02:04:21.615Z,18.12
2023-04-07T02:06:54.264Z,18.09
2023-04-07T02:09:23.741Z,18.09
2023-04-07T02:11:54.363Z,18.01
2023-04-07T02:14:24.327Z,18.19
2023-04-07T02:16:53.989Z,18.14
2023-04-07T02:19:23.885Z,17.90
2023-04-07T02:21:53.176Z,17.98
2023-04-07T02:24:22.139Z,17.92
2023-04-07T02:26:49.974Z,17.85
2023-04-07T02:29:17.695Z,17.67
2023-04-07T02:31:45.916Z,17.51
2023-04-07T02:34:13.732Z,17.68
2023-04-07T02:36:42.944Z,17.52
2023-04-07T02:39:11.048Z,17.48
2023-04-07T02:41:38.768Z,17.51
2023-04-07T02:44:06.612Z,17.45
2023-04-07T02:46:34.412Z,17.36
2023-04-07T02:49:02.258Z,17.49
2023-04-07T02:51:29.962Z,17.42
2023-04-07T02:53:59.000Z,17.54
2023-04-07T02:56:26.695Z,17.54
2023-04-07T02:58:54.382Z,17.53
2023-04-07T03:01:22.169Z,17.47
2023-04-07T03:03:50.172Z,17.48
2023-04-07T03:06:18.029Z,17.57
2023-04-07T03:08:46.164Z,17.81
2023-04-07T03:11:15.521Z,17.98
2023-04-07T03:13:43.194Z,17.70
2023-04-07T03:16:10.928Z,17.42
2023-04-07T03:18:38.686Z,17.40
2023-04-07T03:21:06.428Z,17.33
2023-04-07T03:23:34.151Z,17.27
2023-04-07T03:26:02.415Z,17.32
2023-04-07T03:28:32.024Z,17.18
2023-04-07T03:30:59.764Z,17.02
2023-04-07T03:33:27.566Z,17.25
2023-04-07T03:35:55.561Z,17.22
2023-04-07T03:38:23.311Z,17.25
2023-04-07T03:40:51.091Z,17.22
2023-04-07T03:43:18.839Z,17.45
2023-04-07T03:45:48.221Z,17.48
2023-04-07T03:48:16.139Z,17.37
2023-04-07T03:50:43.844Z,17.35
2023-04-07T03:53:11.560Z,17.06
2023-04-07T03:55:39.364Z,16.92
2023-04-07T03:58:07.209Z,16.79
2023-04-07T04:00:35.447Z,16.45
2023-04-07T04:03:05.024Z,16.63
2023-04-07T04:05:32.855Z,16.69
2023-04-07T04:08:00.643Z,16.63
2023-04-07T04:10:28.353Z,16.70
2023-04-07T04:12:56.069Z,16.73
2023-04-07T04:15:23.785Z,16.87
2023-04-07T04:17:51.515Z,16.71
2023-04-07T04:20:22.157Z,16.81
2023-04-07T04:22:50.003Z,16.70
2023-04-07T04:25:17.786Z,16.55
2023-04-07T04:27:45.765Z,16.46
2023-04-07T04:30:13.841Z,17.01
2023-04-07T04:32:41.643Z,17.10
2023-04-07T04:35:10.338Z,17.33
2023-04-07T04:37:39.419Z,17.52
2023-04-07T04:40:09.344Z,17.56
2023-04-07T04:42:37.240Z,17.38
2023-04-07T04:45:05.813Z,17.03
2023-04-07T04:47:33.572Z,17.03
2023-04-07T04:50:01.454Z,17.24
2023-04-07T04:52:29.220Z,17.15
2023-04-07T04:54:58.329Z,17.47
2023-04-07T04:57:26.107Z,17.11
2023-04-07T04:59:53.831Z,16.80
2023-04-07T05:02:22.065Z,16.88
2023-04-07T05:04:50.353Z,16.88
2023-04-07T05:07:18.187Z,17.04
2023-04-07T05:09:45.950Z,17.18
2023-04-07T05:12:15.034Z,17.35
2023-04-07T05:14:42.716Z,17.48
2023-04-07T05:17:10.664Z,17.58
2023-04-07T05:19:38.428Z,17.60
2023-04-07T05:22:06.218Z,17.53
2023-04-07T05:24:33.996Z,17.48
2023-04-07T05:27:02.061Z,17.48
2023-04-07T05:29:31.197Z,17.30
2023-04-07T05:31:59.032Z,17.25
2023-04-07T05:34:27.302Z,17.24
2023-04-07T05:36:55.102Z,17.32
2023-04-07T05:39:22.827Z,17.29
2023-04-07T05:41:50.561Z,17.12
2023-04-07T05:44:18.283Z,17.24
2023-04-07T05:46:47.362Z,17.31
2023-04-07T05:49:19.918Z,17.61
2023-04-07T05:51:49.113Z,17.68
2023-04-07T05:54:17.297Z,17.64
2023-04-07T05:56:45.006Z,17.89
2023-04-07T05:59:12.734Z,17.93
2023-04-07T06:01:40.557Z,17.77
2023-04-07T06:04:10.041Z,17.28
2023-04-07T06:06:38.210Z,17.58
2023-04-07T06:09:07.004Z,17.58
2023-04-07T06:11:35.991Z,17.46
2023-04-07T06:14:03.692Z,17.58
2023-04-07T06:16:31.545Z,17.79
2023-04-07T06:18:59.682Z,17.87
2023-04-07T06:21:28.879Z,17.63
2023-04-07T06:23:56.560Z,17.64
2023-04-07T06:26:24.608Z,17.91
2023-04-07T06:28:53.050Z,18.20
2023-04-07T06:31:21.039Z,18.23
2023-04-07T06:33:49.090Z,18.09
2023-04-07T06:36:17.407Z,17.92
2023-04-07T06:38:47.180Z,17.89
2023-04-07T06:41:17.100Z,18.19
2023-04-07T06:43:45.064Z,17.84
2023-04-07T06:46:12.886Z,18.19
2023-04-07T06:48:40.806Z,18.19
2023-04-07T06:51:08.530Z,18.22
2023-04-07T06:53:36.432Z,18.51
2023-04-07T06:56:07.121Z,18.09
2023-04-07T06:58:35.438Z,17.84
2023-04-07T07:01:04.752Z,18.25
2023-04-07T07:03:32.736Z,17.88
2023-04-07T07:06:01.307Z,17.80
2023-04-07T07:08:30.711Z,18.32
2023-04-07T07:10:58.466Z,18.44
2023-04-07T07:13:28.200Z,18.57
2023-04-07T07:15:56.109Z,18.04
2023-04-07T07:18:23.985Z,18.33
2023-04-07T07:20:51.801Z,18.77
2023-04-07T07:23:19.517Z,18.60
2023-04-07T07:25:47.256Z,18.45
2023-04-07T07:28:15.053Z,18.60
2023-04-07T07:30:44.210Z,18.40
2023-04-07T07:33:11.905Z,19.03
2023-04-07T07:35:40.432Z,19.54
2023-04-07T07:38:08.409Z,19.07
2023-04-07T07:40:36.274Z,19.48
2023-04-07T07:43:04.034Z,19.04
2023-04-07T07:45:31.744Z,19.27
2023-04-07T07:48:01.168Z,19.32
2023-04-07T07:50:29.030Z,19.53
2023-04-07T07:52:56.796Z,19.82
2023-04-07T07:55:24.559Z,19.90
2023-04-07T07:57:52.274Z,19.95
2023-04-07T08:00:20.510Z,19.68
2023-04-07T08:02:48.333Z,18.35
2023-04-07T08:05:17.751Z,19.23
2023-04-07T08:07:46.870Z,18.29
2023-04-07T08:10:14.775Z,17.30
2023-04-07T08:12:42.592Z,17.52
2023-04-07T08:15:10.749Z,18.00
2023-04-07T08:17:38.631Z,17.97
2023-04-07T08:20:08.819Z,17.46
2023-04-07T08:22:38.035Z,18.89
2023-04-07T08:25:06.443Z,18.89
2023-04-07T08:27:34.638Z,19.45
2023-04-07T08:30:04.285Z,19.47
2023-04-07T08:32:38.824Z,19.60
2023-04-07T08:35:07.282Z,18.15
2023-04-07T08:37:37.416Z,18.82
2023-04-07T08:40:06.890Z,19.40
2023-04-07T08:42:36.269Z,18.75
2023-04-07T08:45:06.327Z,18.64
2023-04-07T08:47:35.466Z,19.32
2023-04-07T08:50:04.955Z,19.88
2023-04-07T08:52:36.323Z,20.07
2023-04-07T08:55:06.940Z,20.70
2023-04-07T08:57:35.395Z,20.51
2023-04-07T09:00:05.810Z,20.24
2023-04-07T09:02:35.151Z,21.09
2023-04-07T09:05:05.875Z,20.54
2023-04-07T09:07:35.244Z,20.94
2023-04-07T09:10:03.106Z,21.28
2023-04-07T09:12:33.502Z,21.84
2023-04-07T09:15:01.739Z,21.91
2023-04-07T09:17:30.404Z,21.83
2023-04-07T09:19:59.241Z,22.44
2023-04-07T09:22:37.811Z,22.60
2023-04-07T09:25:14.572Z,22.42
2023-04-07T09:27:55.546Z,22.41
2023-04-07T09:30:24.012Z,21.38
2023-04-07T09:32:52.180Z,22.31
2023-04-07T09:35:23.110Z,22.47
2023-04-07T09:38:04.868Z,22.42
2023-04-07T09:40:32.839Z,22.86
2023-04-07T09:43:03.954Z,22.47
2023-04-07T09:45:36.272Z,22.65
2023-04-07T09:48:08.495Z,22.66
2023-04-07T09:50:37.836Z,23.68
2023-04-07T09:53:05.705Z,23.47
2023-04-07T09:55:33.957Z,23.86
2023-04-07T09:58:03.215Z,22.76
2023-04-07T10:00:31.158Z,23.27
2023-04-07T10:02:59.820Z,23.91
2023-04-07T10:05:28.768Z,22.23
2023-04-07T10:07:57.086Z,23.58
2023-04-07T10:10:26.594Z,24.56
2023-04-07T10:12:55.502Z,24.51
2023-04-07T10:15:24.806Z,23.54
2023-04-07T10:17:54.566Z,23.11
2023-04-07T10:20:23.870Z,23.27
2023-04-07T10:22:54.651Z,22.79
2023-04-07T10:25:25.209Z,22.90
2023-04-07T10:27:57.331Z,23.18
2023-04-07T10:30:28.189Z,23.54
2023-04-07T10:32:57.040Z,23.97
2023-04-07T10:35:25.491Z,23.29
2023-04-07T10:38:14.949Z,24.16
2023-04-07T10:40:44.093Z,23.23
2023-04-07T10:43:12.356Z,22.75
2023-04-07T10:46:05.251Z,23.14
2023-04-07T10:48:34.098Z,25.10
2023-04-07T10:51:22.745Z,25.60
2023-04-07T10:54:27.870Z,23.99
2023-04-07T10:57:14.118Z,24.66
2023-04-07T11:00:03.349Z,24.34
2023-04-07T11:02:36.798Z,25.42
2023-04-07T11:05:05.031Z,24.69
2023-04-07T11:07:48.702Z,24.48
2023-04-07T11:10:19.009Z,24.20
2023-04-07T11:13:01.556Z,23.80
2023-04-07T11:15:29.431Z,24.63
2023-04-07T11:18:13.314Z,24.22
2023-04-07T11:20:50.068Z,23.89
2023-04-07T11:23:19.744Z,24.25
2023-04-07T11:25:49.302Z,23.50
2023-04-07T11:28:17.786Z,23.73
2023-04-07T11:30:51.772Z,25.30
2023-04-07T11:33:22.467Z,24.12
2023-04-07T11:35:55.629Z,23.40
2023-04-07T11:38:24.298Z,23.39
2023-04-07T11:40:52.189Z,23.32
2023-04-07T11:43:21.914Z,23.64
2023-04-07T11:46:06.074Z,24.13
2023-04-07T11:48:36.313Z,23.61
2023-04-07T11:51:04.635Z,24.19
2023-04-07T11:53:34.298Z,24.18
2023-04-07T11:56:07.581Z,23.38
2023-04-07T11:58:35.093Z,24.66
2023-04-07T12:01:06.963Z,24.66
2023-04-07T12:03:37.823Z,25.47
2023-04-07T12:06:06.364Z,24.92
2023-04-07T12:08:45.126Z,24.37
2023-04-07T12:11:13.283Z,26.04
2023-04-07T12:13:41.494Z,26.04
2023-04-07T12:16:09.502Z,24.92
2023-04-07T12:18:38.616Z,24.60
2023-04-07T12:21:06.417Z,24.46
2023-04-07T12:23:34.082Z,26.09
2023-04-07T12:26:02.223Z,25.84
2023-04-07T12:28:30.029Z,25.45
2023-04-07T12:30:57.821Z,25.03
2023-04-07T12:33:25.566Z,25.15
2023-04-07T12:35:54.877Z,24.95
2023-04-07T12:38:22.655Z,24.68
2023-04-07T12:40:50.379Z,26.55
2023-04-07T12:43:18.262Z,26.66
2023-04-07T12:45:46.092Z,26.03
2023-04-07T12:48:13.871Z,25.08
2023-04-07T12:50:41.619Z,24.19
2023-04-07T12:53:10.651Z,24.60
2023-04-07T12:55:38.445Z,26.48
2023-04-07T12:58:06.160Z,26.82
2023-04-07T13:00:33.884Z,27.19
2023-04-07T13:03:01.992Z,26.49
2023-04-07T13:05:30.540Z,27.25
2023-04-07T13:07:58.256Z,26.86
2023-04-07T13:10:27.438Z,26.14
2023-04-07T13:12:55.408Z,26.60
2023-04-07T13:15:23.283Z,26.57
2023-04-07T13:17:51.305Z,27.09
2023-04-07T13:20:20.818Z,25.84
2023-04-07T13:22:59.282Z,24.95
2023-04-07T13:25:35.011Z,24.74
2023-04-07T13:28:02.886Z,24.10
2023-04-07T13:30:30.621Z,24.17
2023-04-07T13:32:58.727Z,24.76
2023-04-07T13:35:26.750Z,24.98
2023-04-07T13:37:54.741Z,25.96
2023-04-07T13:40:22.532Z,26.18
2023-04-07T13:42:51.602Z,26.41
2023-04-07T13:45:19.304Z,27.18
2023-04-07T13:47:47.471Z,27.52
2023-04-07T13:50:15.812Z,28.47
2023-04-07T13:52:43.562Z,26.18
2023-04-07T13:55:11.312Z,25.03
2023-04-07T13:57:39.169Z,25.20
2023-04-07T14:00:09.640Z,24.56
2023-04-07T14:02:37.442Z,24.96
2023-04-07T14:05:05.629Z,25.43
2023-04-07T14:07:33.330Z,26.16
2023-04-07T14:10:01.176Z,27.22
2023-04-07T14:12:28.849Z,29.04
2023-04-07T14:14:56.516Z,29.59
2023-04-07T14:17:25.956Z,28.59
2023-04-07T14:19:54.000Z,28.61
2023-04-07T14:22:21.799Z,26.54
2023-04-07T14:24:49.582Z,26.14
2023-04-07T14:27:20.978Z,25.81
2023-04-07T14:29:49.085Z,25.98
2023-04-07T14:32:17.221Z,27.01
2023-04-07T14:34:46.377Z,27.20
2023-04-07T14:37:16.133Z,27.07
2023-04-07T14:39:55.234Z,27.64
2023-04-07T14:42:30.130Z,26.66
2023-04-07T14:44:57.967Z,26.54
2023-04-07T14:47:26.393Z,26.21
2023-04-07T14:49:55.627Z,28.00
2023-04-07T14:52:23.397Z,28.25
2023-04-07T14:54:51.138Z,27.78
2023-04-07T14:57:19.665Z,28.17
2023-04-07T14:59:48.494Z,27.71
2023-04-07T15:02:16.320Z,28.06
2023-04-07T15:04:44.279Z,26.65
2023-04-07T15:07:13.451Z,26.07
2023-04-07T15:09:41.208Z,24.33
2023-04-07T15:12:08.935Z,25.15
2023-04-07T15:14:36.697Z,25.73
2023-04-07T15:17:04.417Z,24.92
2023-04-07T15:19:32.095Z,25.59
2023-04-07T15:21:59.862Z,25.68
2023-04-07T15:24:29.041Z,27.02
2023-04-07T15:26:56.714Z,27.21
2023-04-07T15:29:24.402Z,26.74
2023-04-07T15:31:52.190Z,25.87
2023-04-07T15:34:19.949Z,25.49
2023-04-07T15:36:47.691Z,25.46
2023-04-07T15:39:16.863Z,26.68
2023-04-07T15:41:45.979Z,25.97
2023-04-07T15:44:18.652Z,25.43
2023-04-07T15:46:46.588Z,26.32
2023-04-07T15:49:19.887Z,25.74
2023-04-07T15:51:47.698Z,26.39
2023-04-07T15:54:15.428Z,26.21
2023-04-07T15:56:43.088Z,26.98
2023-04-07T15:59:12.232Z,26.04
2023-04-07T16:01:40.282Z,25.86
2023-04-07T16:04:08.164Z,25.50
2023-04-07T16:06:36.324Z,24.82
2023-04-07T16:09:05.350Z,25.81
2023-04-07T16:11:33.076Z,26.08
2023-04-07T16:14:00.859Z,25.81
2023-04-07T16:16:32.466Z,25.51
2023-04-07T16:19:00.233Z,26.38
2023-04-07T16:21:27.985Z,27.09
2023-04-07T16:23:55.982Z,26.94
2023-04-07T16:26:23.710Z,26.85
2023-04-07T16:28:51.429Z,25.49
2023-04-07T16:31:19.176Z,25.48
2023-04-07T16:33:48.600Z,26.36
2023-04-07T16:36:16.554Z,26.39
2023-04-07T16:38:44.295Z,25.76
2023-04-07T16:41:12.035Z,26.32
2023-04-07T16:43:39.754Z,25.80
2023-04-07T16:46:07.547Z,26.29
2023-04-07T16:48:35.264Z,25.54
2023-04-07T16:51:04.436Z,24.48
2023-04-07T16:53:32.192Z,25.48
2023-04-07T16:55:59.960Z,24.63
2023-04-07T16:58:28.054Z,24.54
2023-04-07T17:00:55.900Z,25.30
2023-04-07T17:03:23.823Z,25.80
2023-04-07T17:05:51.644Z,25.71
2023-04-07T17:08:21.074Z,25.57
2023-04-07T17:10:48.772Z,26.00
2023-04-07T17:13:16.562Z,26.08
2023-04-07T17:15:44.267Z,26.38
2023-04-07T17:18:11.977Z,25.42
2023-04-07T17:20:39.687Z,25.06
2023-04-07T17:23:07.795Z,25.26
2023-04-07T17:25:36.923Z,24.98
2023-04-07T17:28:04.640Z,25.02
2023-04-07T17:30:33.146Z,25.00
2023-04-07T17:33:01.161Z,24.88
2023-04-07T17:35:28.969Z,24.32
2023-04-07T17:37:57.202Z,24.66
2023-04-07T17:40:24.925Z,24.88
2023-04-07T17:42:54.034Z,24.66
2023-04-07T17:45:22.393Z,24.60
2023-04-07T17:47:50.977Z,24.94
2023-04-07T17:50:19.193Z,24.91
2023-04-07T17:52:46.976Z,25.14
2023-04-07T17:55:14.920Z,24.83
2023-04-07T17:57:42.917Z,24.41
2023-04-07T18:00:12.742Z,24.63
2023-04-07T18:02:41.427Z,24.29
2023-04-07T18:05:10.585Z,24.37
2023-04-07T18:07:39.015Z,24.38
2023-04-07T18:10:08.079Z,24.71
2023-04-07T18:12:35.855Z,25.21
2023-04-07T18:15:04.548Z,24.95
2023-04-07T18:17:33.761Z,24.67
2023-04-07T18:20:02.152Z,24.89
2023-04-07T18:22:29.878Z,25.22
2023-04-07T18:24:57.566Z,25.33
2023-04-07T18:27:27.941Z,24.80
2023-04-07T18:29:55.809Z,25.11
2023-04-07T18:32:24.310Z,25.12
2023-04-07T18:34:54.772Z,24.88
2023-04-07T18:37:22.825Z,24.67
2023-04-07T18:39:52.205Z,24.21
2023-04-07T18:42:20.091Z,24.19
2023-04-07T18:44:47.931Z,24.01
2023-04-07T18:47:16.118Z,24.34
2023-04-07T18:49:43.870Z,23.59
2023-04-07T18:52:12.975Z,23.95
2023-04-07T18:54:40.822Z,24.10
2023-04-07T18:57:08.502Z,23.99
2023-04-07T18:59:36.500Z,24.28
2023-04-07T19:02:04.302Z,24.33
2023-04-07T19:04:32.107Z,24.42
2023-04-07T19:07:00.002Z,24.01
2023-04-07T19:09:29.581Z,24.15
2023-04-07T19:11:58.003Z,24.19
2023-04-07T19:14:25.964Z,24.15
2023-04-07T19:16:53.875Z,24.15
2023-04-07T19:19:21.638Z,24.09
2023-04-07T19:21:49.324Z,23.99
2023-04-07T19:24:17.071Z,23.91
2023-04-07T19:26:46.163Z,23.77
2023-04-07T19:29:13.859Z,23.80
2023-04-07T19:31:42.788Z,23.93
2023-04-07T19:34:10.595Z,23.98
2023-04-07T19:36:38.355Z,23.80
2023-04-07T19:39:06.115Z,23.83
2023-04-07T19:41:33.942Z,23.63
2023-04-07T19:44:03.094Z,23.38
2023-04-07T19:46:30.973Z,23.14
2023-04-07T19:48:58.708Z,22.16
2023-04-07T19:51:27.626Z,22.65
2023-04-07T19:53:55.574Z,22.59
2023-04-07T19:56:23.260Z,22.54
2023-04-07T19:58:51.096Z,22.62
2023-04-07T20:01:20.497Z,22.83
2023-04-07T20:03:49.018Z,22.74
2023-04-07T20:06:18.036Z,22.63
2023-04-07T20:08:45.716Z,21.96
2023-04-07T20:11:13.575Z,21.19
2023-04-07T20:13:42.036Z,21.12
2023-04-07T20:16:09.968Z,21.63
2023-04-07T20:18:39.139Z,21.61
2023-04-07T20:21:07.000Z,21.99
2023-04-07T20:23:34.843Z,20.86
2023-04-07T20:26:02.642Z,21.85
2023-04-07T20:28:30.386Z,21.61
2023-04-07T20:30:58.066Z,21.84
2023-04-07T20:33:25.786Z,21.44
2023-04-07T20:35:54.985Z,21.31
2023-04-07T20:38:22.870Z,21.48
2023-04-07T20:40:50.653Z,21.18
2023-04-07T20:43:21.761Z,20.63
2023-04-07T20:45:49.651Z,20.53
2023-04-07T20:48:23.281Z,20.76
2023-04-07T20:50:51.291Z,20.84
2023-04-07T20:53:20.497Z,20.67
2023-04-07T20:55:48.372Z,20.80
2023-04-07T20:58:17.701Z,20.71
2023-04-07T21:00:45.654Z,20.64
2023-04-07T21:03:13.690Z,20.56
2023-04-07T21:05:44.927Z,20.69
2023-04-07T21:08:14.363Z,20.69
2023-04-07T21:10:43.698Z,20.63
2023-04-07T21:13:11.547Z,21.03
2023-04-07T21:15:39.478Z,21.09
2023-04-07T21:18:07.315Z,20.87
2023-04-07T21:20:37.011Z,21.24
2023-04-07T21:23:05.568Z,20.42
2023-04-07T21:25:33.287Z,20.34
2023-04-07T21:28:02.444Z,21.37
2023-04-07T21:30:30.135Z,21.70
2023-04-07T21:32:57.919Z,21.42
2023-04-07T21:35:27.844Z,21.20
2023-04-07T21:37:55.711Z,21.50
2023-04-07T21:40:23.556Z,21.39
2023-04-07T21:42:52.247Z,21.48
2023-04-07T21:45:21.772Z,21.26
2023-04-07T21:47:49.595Z,20.97
2023-04-07T21:50:17.535Z,21.14
2023-04-07T21:52:45.347Z,21.38
2023-04-07T21:55:13.288Z,21.18
2023-04-07T21:57:41.044Z,21.40
2023-04-07T22:00:10.641Z,20.89
2023-04-07T22:02:39.995Z,20.77
2023-04-07T22:05:08.380Z,20.64
2023-04-07T22:07:36.066Z,20.54
2023-04-07T22:10:03.923Z,20.92
2023-04-07T22:12:31.683Z,20.65
2023-04-07T22:14:59.411Z,20.61
2023-04-07T22:17:27.278Z,20.79
2023-04-07T22:19:56.415Z,20.98
2023-04-07T22:22:24.273Z,20.81
2023-04-07T22:24:52.041Z,20.95
2023-04-07T22:27:19.730Z,20.30
2023-04-07T22:29:47.407Z,20.44
2023-04-07T22:32:15.103Z,20.64
2023-04-07T22:34:42.878Z,20.27
2023-04-07T22:37:11.940Z,19.59
2023-04-07T22:39:40.134Z,19.58
2023-04-07T22:42:08.031Z,19.61
2023-04-07T22:44:35.890Z,19.79
2023-04-07T22:47:04.105Z,19.50
2023-04-07T22:49:32.296Z,19.60
2023-04-07T22:51:59.982Z,19.63
2023-04-07T22:54:29.051Z,19.39
2023-04-07T22:56:57.479Z,19.26
2023-04-07T22:59:25.372Z,18.82
2023-04-07T23:01:53.842Z,18.44
2023-04-07T23:04:23.054Z,18.89
2023-04-07T23:06:50.765Z,18.53
2023-04-07T23:09:18.438Z,18.43
2023-04-07T23:11:48.729Z,18.49
2023-04-07T23:14:16.518Z,18.13
2023-04-07T23:16:44.301Z,17.94
2023-04-07T23:19:15.473Z,17.95
2023-04-07T23:21:43.676Z,18.01
2023-04-07T23:24:11.554Z,17.77
2023-04-07T23:26:39.220Z,17.87
2023-04-07T23:29:08.280Z,18.38
2023-04-07T23:31:36.070Z,17.89
2023-04-07T23:34:05.374Z,18.23
2023-04-07T23:36:33.219Z,18.37
2023-04-07T23:39:02.022Z,18.59
2023-04-07T23:41:29.748Z,18.35
2023-04-07T23:43:57.544Z,18.44
2023-04-07T23:46:26.772Z,18.73
2023-04-07T23:48:54.552Z,18.39
2023-04-07T23:51:22.826Z,18.84
2023-04-07T23:53:50.754Z,18.64
2023-04-07T23:56:18.602Z,18.16
2023-04-07T23:58:46.627Z,18.13
